Time;durP1;ratioP1;P1;durP2;ratioP2;P2;SDS_P1;SDS_P2;PMS_P1;PMS_P2;Temp;Humidity;BMP_temperature;BMP_pressure;BME280_temperature;BME280_humidity;BME280_pressure;Samples;Min_cycle;Max_cycle;Signal;HPM_P1;HPM_P2
2023/12/20 00:00:02;;;;;;;5.50;4.07;;;5.70;99.90;;;;;;5053191;28;20559;-71
2023/12/20 00:02:29;;;;;;;8.90;3.73;;;5.70;99.90;;;;;;5052801;28;20546;-74
2023/12/20 00:04:55;;;;;;;5.30;3.00;;;5.70;99.90;;;;;;5052256;28;20562;-74
2023/12/20 00:07:22;;;;;;;6.70;4.37;;;5.70;99.90;;;;;;5036435;28;20555;-73
2023/12/20 00:09:49;;;;;;;5.83;4.77;;;5.80;99.90;;;;;;5034879;28;20843;-77
2023/12/20 00:12:16;;;;;;;3.60;3.27;;;5.70;99.90;;;;;;5040250;28;20574;-75
2023/12/20 00:14:44;;;;;;;5.23;3.43;;;5.80;99.90;;;;;;5037453;28;20491;-77
2023/12/20 00:17:11;;;;;;;6.00;4.50;;;5.80;99.90;;;;;;5047093;28;20578;-75
2023/12/20 00:19:37;;;;;;;4.23;3.63;;;5.80;99.90;;;;;;5044996;28;20555;-75
2023/12/20 00:22:04;;;;;;;7.10;5.00;;;5.90;99.90;;;;;;5046091;28;21357;-71
2023/12/20 00:24:31;;;;;;;15.27;4.20;;;5.80;99.90;;;;;;5044880;28;20550;-72
2023/12/20 00:26:58;;;;;;;3.60;2.80;;;5.80;99.90;;;;;;5048848;28;20519;-75
2023/12/20 00:29:25;;;;;;;12.77;4.27;;;5.80;99.90;;;;;;5039941;28;20747;-76
2023/12/20 00:31:53;;;;;;;5.07;3.87;;;5.80;99.90;;;;;;5038552;28;20569;-75
2023/12/20 00:34:21;;;;;;;5.50;4.43;;;5.80;99.90;;;;;;5039248;28;20567;-75
2023/12/20 00:36:48;;;;;;;4.00;2.90;;;5.70;99.90;;;;;;5038956;28;20480;-72
2023/12/20 00:39:14;;;;;;;17.63;3.27;;;5.80;99.90;;;;;;5036488;28;20507;-73
2023/12/20 00:41:41;;;;;;;3.90;3.20;;;5.80;99.90;;;;;;5039935;28;20566;-74
2023/12/20 00:44:08;;;;;;;5.30;2.97;;;5.80;99.90;;;;;;5043035;28;20831;-76
2023/12/20 00:46:35;;;;;;;5.30;2.53;;;5.70;99.90;;;;;;5057025;28;20555;-75
2023/12/20 00:49:03;;;;;;;12.20;3.30;;;5.80;99.90;;;;;;5046644;28;20547;-74
2023/12/20 00:51:30;;;;;;;3.40;1.63;;;5.80;99.90;;;;;;5046997;28;20551;-71
2023/12/20 00:53:57;;;;;;;3.97;2.70;;;5.80;99.90;;;;;;5039435;28;20558;-70
2023/12/20 00:56:23;;;;;;;4.27;2.63;;;5.80;99.90;;;;;;5050539;28;21007;-74
2023/12/20 00:58:50;;;;;;;19.23;4.63;;;5.80;99.90;;;;;;5046288;28;20553;-69
2023/12/20 01:01:17;;;;;;;3.07;2.77;;;5.80;99.90;;;;;;5040232;28;20507;-74
2023/12/20 01:03:44;;;;;;;6.20;3.13;;;5.90;99.90;;;;;;5038800;28;20511;-74
2023/12/20 01:06:12;;;;;;;8.37;3.30;;;5.90;99.90;;;;;;5056403;28;20565;-74
2023/12/20 01:08:39;;;;;;;2.97;2.00;;;5.90;99.90;;;;;;5039908;28;21368;-74
2023/12/20 01:11:06;;;;;;;7.37;3.03;;;6.00;99.90;;;;;;5049080;28;20487;-74
2023/12/20 01:13:33;;;;;;;6.23;3.20;;;5.90;99.90;;;;;;5044348;28;21230;-74
2023/12/20 01:16:00;;;;;;;3.63;3.30;;;6.00;99.90;;;;;;5035224;28;20507;-73
2023/12/20 01:18:26;;;;;;;4.67;3.57;;;6.00;99.90;;;;;;5040341;28;20991;-73
2023/12/20 01:20:53;;;;;;;6.80;3.90;;;6.00;99.90;;;;;;5036956;28;21014;-74
2023/12/20 01:23:21;;;;;;;2.83;2.43;;;6.00;99.90;;;;;;5030191;28;20479;-73
2023/12/20 01:25:49;;;;;;;3.60;3.27;;;6.00;99.90;;;;;;5050526;28;20603;-73
2023/12/20 01:28:16;;;;;;;4.50;3.90;;;6.00;99.90;;;;;;5038882;28;20495;-72
2023/12/20 01:30:43;;;;;;;4.60;3.30;;;5.90;99.90;;;;;;5039283;28;20922;-73
2023/12/20 01:33:10;;;;;;;15.60;5.07;;;5.90;99.90;;;;;;5037671;28;20495;-74
2023/12/20 01:35:37;;;;;;;6.23;2.83;;;5.90;99.90;;;;;;5038928;28;20843;-71
2023/12/20 01:38:04;;;;;;;5.83;3.30;;;5.90;99.90;;;;;;5038756;28;20476;-73
2023/12/20 01:40:32;;;;;;;7.67;4.00;;;5.90;99.90;;;;;;5036672;28;20529;-75
2023/12/20 01:43:00;;;;;;;3.37;2.70;;;5.90;99.90;;;;;;5040395;28;20894;-73
2023/12/20 01:45:27;;;;;;;8.73;4.27;;;5.80;99.90;;;;;;5043090;28;20545;-74
2023/12/20 01:47:54;;;;;;;2.37;2.17;;;5.80;99.90;;;;;;5043174;28;20563;-74
2023/12/20 01:50:22;;;;;;;6.13;1.97;;;5.80;99.90;;;;;;5042510;28;20511;-71
2023/12/20 01:52:51;;;;;;;3.50;2.90;;;5.90;99.90;;;;;;5066160;28;20697;-73
2023/12/20 01:55:19;;;;;;;19.10;4.07;;;6.00;99.90;;;;;;5041102;28;20575;-72
2023/12/20 01:57:48;;;;;;;4.83;3.00;;;6.00;99.90;;;;;;5041687;28;20579;-73
2023/12/20 02:00:16;;;;;;;3.80;3.43;;;6.00;99.90;;;;;;5041620;28;20483;-74
2023/12/20 02:02:44;;;;;;;9.80;2.90;;;6.10;99.90;;;;;;5040482;28;20495;-73
2023/12/20 02:05:11;;;;;;;6.13;2.60;;;6.10;99.90;;;;;;5042643;28;20503;-71
2023/12/20 02:07:38;;;;;;;23.37;5.07;;;6.20;99.90;;;;;;5041569;28;20472;-73
2023/12/20 02:10:06;;;;;;;4.00;2.63;;;6.20;99.90;;;;;;5037184;28;20495;-72
2023/12/20 02:12:33;;;;;;;8.53;3.70;;;6.10;99.90;;;;;;5042295;28;21237;-74
2023/12/20 02:15:01;;;;;;;9.03;3.17;;;6.10;99.90;;;;;;5039226;28;20567;-73
2023/12/20 02:17:28;;;;;;;3.57;2.80;;;6.10;99.90;;;;;;5032071;28;20537;-73
2023/12/20 02:19:55;;;;;;;4.10;3.63;;;6.10;99.90;;;;;;5056414;28;20486;-74
2023/12/20 02:22:23;;;;;;;8.63;3.10;;;6.10;99.90;;;;;;5045192;28;20572;-74
2023/12/20 02:24:50;;;;;;;7.63;3.13;;;6.10;99.90;;;;;;5046776;28;20479;-74
2023/12/20 02:27:20;;;;;;;4.87;3.70;;;6.10;99.90;;;;;;5061343;28;20511;-74
2023/12/20 02:29:49;;;;;;;6.70;3.23;;;6.00;99.90;;;;;;5047266;28;20555;-73
2023/12/20 02:32:16;;;;;;;5.50;3.40;;;6.00;99.90;;;;;;5041117;28;20464;-73
2023/12/20 02:34:43;;;;;;;3.47;3.17;;;6.00;99.90;;;;;;5044817;28;20594;-75
2023/12/20 02:37:09;;;;;;;3.47;2.23;;;6.00;99.90;;;;;;5040951;28;20496;-75
2023/12/20 02:39:38;;;;;;;3.30;2.60;;;6.00;99.90;;;;;;5042455;28;20603;-74
2023/12/20 02:42:05;;;;;;;14.50;4.40;;;6.00;99.90;;;;;;5049293;28;21161;-74
2023/12/20 02:44:31;;;;;;;6.63;4.17;;;6.00;99.90;;;;;;5040826;28;20895;-73
2023/12/20 02:46:58;;;;;;;8.10;4.30;;;6.10;99.90;;;;;;5047862;28;20924;-74
2023/12/20 02:49:25;;;;;;;7.00;3.77;;;6.10;99.90;;;;;;5057885;28;20582;-74
2023/12/20 02:51:52;;;;;;;6.57;4.20;;;6.10;99.90;;;;;;5060114;28;20490;-73
2023/12/20 02:54:18;;;;;;;4.00;3.43;;;6.10;99.90;;;;;;5050586;28;20486;-71
2023/12/20 02:56:47;;;;;;;21.93;5.37;;;6.00;99.90;;;;;;5045840;28;20517;-73
2023/12/20 02:59:14;;;;;;;5.20;4.03;;;6.10;99.90;;;;;;5041737;28;20482;-73
2023/12/20 03:01:43;;;;;;;5.80;4.60;;;6.10;99.90;;;;;;5046059;28;20479;-71
2023/12/20 03:04:10;;;;;;;12.40;7.13;;;6.10;99.90;;;;;;5040236;28;20545;-73
2023/12/20 03:06:37;;;;;;;9.23;5.97;;;6.10;99.90;;;;;;5041136;28;20574;-73
2023/12/20 03:09:04;;;;;;;4.97;4.50;;;6.10;99.90;;;;;;5044867;28;20552;-72
2023/12/20 03:11:31;;;;;;;8.53;4.63;;;6.20;99.90;;;;;;5060548;28;21157;-72
2023/12/20 03:13:59;;;;;;;6.97;5.53;;;6.20;99.90;;;;;;5056102;28;21081;-72
2023/12/20 03:16:26;;;;;;;29.37;5.80;;;6.20;99.90;;;;;;5040496;28;20567;-73
2023/12/20 03:18:53;;;;;;;6.50;5.37;;;6.20;99.90;;;;;;5041318;28;20757;-72
2023/12/20 03:21:20;;;;;;;12.40;5.37;;;6.10;99.90;;;;;;5048449;28;20527;-72
2023/12/20 03:23:47;;;;;;;12.83;6.77;;;6.10;99.90;;;;;;5055138;28;20495;-71
2023/12/20 03:26:14;;;;;;;6.20;5.10;;;6.20;99.90;;;;;;5054894;28;20474;-69
2023/12/20 03:28:40;;;;;;;8.03;5.53;;;6.10;99.90;;;;;;5071579;28;21011;-67
2023/12/20 03:31:10;;;;;;;13.83;6.50;;;6.20;99.90;;;;;;5060153;28;20993;-70
2023/12/20 03:33:37;;;;;;;7.03;5.53;;;6.30;99.90;;;;;;5041622;28;20573;-71
2023/12/20 03:36:04;;;;;;;3.93;3.53;;;6.20;99.90;;;;;;5070424;28;20542;-72
2023/12/20 03:38:31;;;;;;;6.53;5.23;;;6.20;99.90;;;;;;5064681;28;21055;-71
2023/12/20 03:40:58;;;;;;;18.60;6.83;;;6.30;99.90;;;;;;5056427;28;20999;-71
2023/12/20 03:43:24;;;;;;;7.80;6.40;;;6.30;99.90;;;;;;5060231;28;21045;-71
2023/12/20 03:45:51;;;;;;;7.03;5.20;;;6.30;99.90;;;;;;5059244;28;21063;-72
2023/12/20 03:48:19;;;;;;;7.30;5.70;;;6.30;99.90;;;;;;5060394;28;20927;-68
2023/12/20 03:50:47;;;;;;;9.70;6.53;;;;;;;;;;5058816;28;20589;-67
2023/12/20 03:53:13;;;;;;;6.67;6.00;;;6.30;99.90;;;;;;5057541;28;20867;-71
2023/12/20 03:55:40;;;;;;;23.47;7.20;;;6.40;99.90;;;;;;5059858;28;20901;-67
2023/12/20 03:58:07;;;;;;;8.60;6.57;;;6.30;99.90;;;;;;5032590;28;20554;-67
2023/12/20 04:00:34;;;;;;;7.27;6.30;;;6.30;99.90;;;;;;5039594;28;20560;-72
2023/12/20 04:03:01;;;;;;;4.97;4.50;;;6.40;99.90;;;;;;5038901;28;20917;-72
2023/12/20 04:05:29;;;;;;;6.33;5.30;;;6.40;99.90;;;;;;5038870;28;20483;-73
2023/12/20 04:07:56;;;;;;;9.80;5.30;;;6.40;99.90;;;;;;5039504;28;20571;-73
2023/12/20 04:10:22;;;;;;;6.73;4.90;;;6.40;99.90;;;;;;5039506;28;20567;-67
2023/12/20 04:12:49;;;;;;;4.90;4.40;;;6.50;99.90;;;;;;5039305;28;20969;-71
2023/12/20 04:15:16;;;;;;;6.40;5.40;;;6.50;99.90;;;;;;5039396;28;21002;-70
2023/12/20 04:17:43;;;;;;;5.83;5.20;;;6.50;99.90;;;;;;5040381;28;20512;-72
2023/12/20 04:20:10;;;;;;;6.13;5.37;;;6.50;99.90;;;;;;5039093;28;20480;-73
2023/12/20 04:22:39;;;;;;;7.87;5.83;;;6.50;99.90;;;;;;5039354;28;21057;-67
2023/12/20 04:25:06;;;;;;;6.57;5.63;;;;;;;;;;5038177;28;20614;-70
2023/12/20 04:27:33;;;;;;;10.80;3.73;;;6.50;99.90;;;;;;5039862;28;21012;-71
2023/12/20 04:30:00;;;;;;;7.00;4.10;;;6.60;99.90;;;;;;5038240;28;20512;-70
2023/12/20 04:32:26;;;;;;;9.00;4.37;;;6.70;99.90;;;;;;5039235;28;21683;-73
2023/12/20 04:34:53;;;;;;;5.60;5.10;;;6.70;99.90;;;;;;5037516;28;20571;-72
2023/12/20 04:37:20;;;;;;;12.87;5.33;;;6.80;99.90;;;;;;5039844;28;20483;-73
2023/12/20 04:39:48;;;;;;;10.33;5.23;;;6.80;99.90;;;;;;5035428;28;20500;-73
2023/12/20 04:42:15;;;;;;;5.07;4.33;;;6.80;99.90;;;;;;5037828;28;20577;-73
2023/12/20 04:44:43;;;;;;;5.60;4.93;;;6.90;99.90;;;;;;5039272;28;20499;-72
2023/12/20 04:47:10;;;;;;;7.97;5.13;;;6.90;99.90;;;;;;5038248;28;20463;-74
2023/12/20 04:49:37;;;;;;;5.00;4.53;;;7.00;99.90;;;;;;5046834;28;20558;-74
2023/12/20 04:52:04;;;;;;;6.30;5.07;;;7.00;99.90;;;;;;5043858;28;20537;-74
2023/12/20 04:54:31;;;;;;;7.10;4.57;;;7.10;99.90;;;;;;5047592;28;20954;-74
2023/12/20 04:56:59;;;;;;;6.27;4.17;;;7.10;99.90;;;;;;5050396;28;21275;-74
2023/12/20 04:59:25;;;;;;;6.60;5.17;;;7.10;99.90;;;;;;5044810;28;20475;-74
2023/12/20 05:01:52;;;;;;;11.87;5.43;;;7.20;99.90;;;;;;5050297;28;20572;-73
2023/12/20 05:04:20;;;;;;;7.00;5.23;;;7.30;99.90;;;;;;5038104;28;20475;-74
2023/12/20 05:06:47;;;;;;;13.97;5.87;;;7.30;99.90;;;;;;5040727;28;20479;-74
2023/12/20 05:09:13;;;;;;;6.40;5.10;;;7.30;99.90;;;;;;5042248;28;20583;-73
2023/12/20 05:11:40;;;;;;;12.50;5.50;;;7.40;99.90;;;;;;5038875;28;20898;-73
2023/12/20 05:14:08;;;;;;;11.80;4.60;;;7.40;99.90;;;;;;5021597;28;20495;-73
2023/12/20 05:16:35;;;;;;;12.83;5.73;;;7.40;99.90;;;;;;5038663;28;20583;-73
2023/12/20 05:19:06;;;;;;;6.33;5.17;;;7.50;99.90;;;;;;5039924;28;20769;-74
2023/12/20 05:21:33;;;;;;;6.13;4.90;;;7.50;99.90;;;;;;5041763;28;21005;-73
2023/12/20 05:24:00;;;;;;;8.60;5.47;;;7.50;99.90;;;;;;5046332;28;20497;-73
2023/12/20 05:26:27;;;;;;;5.03;4.60;;;7.50;99.90;;;;;;5042458;28;20564;-73
2023/12/20 05:28:53;;;;;;;7.50;5.23;;;7.50;99.90;;;;;;5042894;28;20619;-73
2023/12/20 05:31:21;;;;;;;6.20;4.57;;;7.50;99.90;;;;;;5043488;28;20507;-74
2023/12/20 05:33:48;;;;;;;17.87;5.20;;;7.50;99.90;;;;;;5041137;28;21040;-73
2023/12/20 05:36:15;;;;;;;4.57;4.00;;;7.40;99.90;;;;;;5042356;28;20950;-73
2023/12/20 05:38:42;;;;;;;4.83;4.33;;;7.40;99.90;;;;;;5043047;28;20910;-73
2023/12/20 05:41:09;;;;;;;21.67;6.57;;;7.30;99.90;;;;;;5044404;28;20704;-74
2023/12/20 05:43:35;;;;;;;9.70;3.03;;;7.20;99.90;;;;;;5052549;28;21016;-73
2023/12/20 05:46:02;;;;;;;8.47;3.87;;;7.20;99.90;;;;;;5060791;28;20511;-74
2023/12/20 05:48:30;;;;;;;9.23;2.80;;;7.10;99.90;;;;;;5066636;28;20543;-75
2023/12/20 05:50:57;;;;;;;3.10;1.90;;;;;;;;;;5040424;28;20559;-73
2023/12/20 05:53:24;;;;;;;12.20;5.60;;;7.10;99.90;;;;;;5041952;28;20551;-74
2023/12/20 05:55:51;;;;;;;19.37;8.13;;;7.10;99.90;;;;;;5041383;28;20898;-73
2023/12/20 05:58:18;;;;;;;14.27;3.00;;;7.10;99.90;;;;;;5042007;28;20922;-73
2023/12/20 06:00:45;;;;;;;6.17;2.50;;;7.00;99.90;;;;;;5042502;28;21207;-73
2023/12/20 06:03:11;;;;;;;13.90;2.87;;;7.00;99.90;;;;;;5042337;28;20530;-73
2023/12/20 06:05:39;;;;;;;8.63;2.50;;;7.00;99.90;;;;;;5041665;28;20569;-73
2023/12/20 06:08:07;;;;;;;4.10;2.60;;;6.90;99.90;;;;;;5042810;28;20573;-72
2023/12/20 06:10:34;;;;;;;26.50;6.00;;;6.90;99.90;;;;;;5035204;28;20550;-72
2023/12/20 06:13:00;;;;;;;11.63;3.33;;;6.80;99.90;;;;;;5037258;28;20879;-73
2023/12/20 06:15:27;;;;;;;29.87;3.70;;;6.80;99.90;;;;;;5042322;28;20472;-72
2023/12/20 06:17:54;;;;;;;3.60;2.50;;;6.80;99.90;;;;;;5040087;28;20534;-73
2023/12/20 06:20:21;;;;;;;6.33;3.77;;;6.80;99.90;;;;;;5038360;28;20495;-72
2023/12/20 06:22:49;;;;;;;15.13;2.30;;;6.70;99.90;;;;;;5036441;28;20533;-73
2023/12/20 06:25:17;;;;;;;5.10;2.43;;;6.60;99.90;;;;;;5041400;28;20483;-72
2023/12/20 06:27:44;;;;;;;3.23;2.30;;;6.50;99.90;;;;;;5041743;28;20675;-72
2023/12/20 06:30:11;;;;;;;19.23;3.07;;;6.40;99.90;;;;;;5044458;28;20835;-71
2023/12/20 06:32:39;;;;;;;7.50;2.70;;;6.30;99.90;;;;;;5041288;28;20571;-72
2023/12/20 06:35:07;;;;;;;4.27;1.80;;;6.30;99.90;;;;;;5045924;28;20550;-72
2023/12/20 06:37:34;;;;;;;10.47;2.57;;;6.10;99.90;;;;;;5041331;28;20572;-72
2023/12/20 06:40:02;;;;;;;8.43;2.10;;;6.10;99.90;;;;;;5040291;28;20795;-72
2023/12/20 06:42:29;;;;;;;9.77;1.83;;;6.10;99.90;;;;;;5039848;28;20503;-72
2023/12/20 06:44:55;;;;;;;2.33;1.63;;;5.90;99.90;;;;;;5047561;28;20570;-72
2023/12/20 06:47:22;;;;;;;5.70;1.70;;;5.90;99.90;;;;;;5041460;28;20578;-72
2023/12/20 06:49:49;;;;;;;8.23;3.10;;;5.80;99.90;;;;;;5040682;28;21038;-72
2023/12/20 06:52:16;;;;;;;7.63;2.20;;;5.70;99.90;;;;;;5061332;28;20483;-72
2023/12/20 06:54:43;;;;;;;11.33;2.33;;;5.60;99.90;;;;;;5060544;28;20565;-72
2023/12/20 06:57:11;;;;;;;11.33;2.27;;;5.60;99.90;;;;;;5054787;28;20535;-72
2023/12/20 06:59:40;;;;;;;5.80;1.90;;;5.50;99.90;;;;;;5058597;28;20604;-72
2023/12/20 07:02:07;;;;;;;4.77;1.93;;;5.60;99.90;;;;;;5060922;28;20780;-72
2023/12/20 07:04:34;;;;;;;7.57;2.90;;;5.50;99.90;;;;;;5060667;28;20923;-72
2023/12/20 07:07:01;;;;;;;4.40;2.63;;;5.40;99.90;;;;;;5060492;28;20956;-73
2023/12/20 07:09:27;;;;;;;11.73;2.70;;;5.30;99.90;;;;;;5060841;28;20555;-72
2023/12/20 07:11:54;;;;;;;3.57;2.33;;;5.30;99.90;;;;;;5060020;28;20575;-72
2023/12/20 07:14:22;;;;;;;4.17;2.17;;;5.30;99.90;;;;;;5060004;28;20549;-72
2023/12/20 07:16:49;;;;;;;18.57;2.80;;;5.30;99.90;;;;;;5059608;28;20499;-72
2023/12/20 07:19:16;;;;;;;4.23;2.33;;;;;;;;;;5061124;28;20557;-72
2023/12/20 07:21:44;;;;;;;4.77;2.20;;;5.30;99.90;;;;;;5060182;28;20482;-72
2023/12/20 07:24:11;;;;;;;3.80;2.30;;;5.30;99.90;;;;;;5060136;28;20509;-73
2023/12/20 07:26:39;;;;;;;6.50;2.43;;;5.30;99.90;;;;;;5059200;28;20507;-72
2023/12/20 07:29:06;;;;;;;14.50;2.90;;;5.20;99.90;;;;;;5060990;28;20491;-73
2023/12/20 07:31:34;;;;;;;8.70;3.60;;;5.20;99.90;;;;;;5051728;28;20482;-72
2023/12/20 07:34:01;;;;;;;6.83;2.90;;;5.20;99.90;;;;;;5072690;28;20490;-72
2023/12/20 07:36:28;;;;;;;10.90;2.90;;;5.20;99.90;;;;;;5060231;28;20958;-72
2023/12/20 07:38:55;;;;;;;6.73;3.30;;;5.20;99.90;;;;;;5059734;28;20506;-72
2023/12/20 07:41:23;;;;;;;8.53;3.37;;;5.20;99.90;;;;;;5059623;28;20475;-72
2023/12/20 07:43:50;;;;;;;10.47;3.57;;;5.20;99.90;;;;;;5059292;28;20475;-72
2023/12/20 07:46:18;;;;;;;8.03;3.30;;;5.20;99.90;;;;;;5056181;28;20550;-72
2023/12/20 07:48:46;;;;;;;8.17;3.57;;;5.20;99.90;;;;;;5058300;28;20593;-72
2023/12/20 07:51:13;;;;;;;3.33;2.13;;;5.30;99.90;;;;;;5058650;28;20470;-73
2023/12/20 07:53:39;;;;;;;7.13;3.13;;;5.40;99.90;;;;;;5060209;28;21016;-73
2023/12/20 07:56:15;;;;;;;7.83;2.20;;;5.40;99.90;;;;;;5060187;28;20577;-74
2023/12/20 07:58:42;;;;;;;12.23;4.03;;;5.50;99.90;;;;;;5060223;28;20502;-73
2023/12/20 08:01:08;;;;;;;6.03;3.20;;;5.50;99.90;;;;;;5059056;28;21070;-73
2023/12/20 08:03:35;;;;;;;5.60;2.77;;;5.60;99.90;;;;;;5058864;28;21069;-74
2023/12/20 08:06:04;;;;;;;8.20;3.67;;;5.80;99.90;;;;;;5059553;28;21021;-74
2023/12/20 08:08:31;;;;;;;15.77;2.70;;;5.80;99.90;;;;;;5059593;28;20985;-71
2023/12/20 08:11:00;;;;;;;9.00;2.90;;;6.00;99.90;;;;;;5058751;28;20471;-73
2023/12/20 08:13:27;;;;;;;14.67;3.80;;;6.00;99.90;;;;;;5059889;28;20471;-73
2023/12/20 08:15:55;;;;;;;5.60;2.97;;;6.00;99.90;;;;;;5059351;28;20556;-73
2023/12/20 08:18:23;;;;;;;12.47;4.03;;;6.00;99.90;;;;;;5060153;28;20463;-73
2023/12/20 08:20:52;;;;;;;9.73;4.30;;;6.00;99.90;;;;;;5041668;28;20547;-73
2023/12/20 08:23:21;;;;;;;3.40;2.70;;;6.00;99.90;;;;;;5059507;28;20478;-75
2023/12/20 08:25:48;;;;;;;13.33;3.90;;;6.10;99.90;;;;;;5057850;28;20478;-73
2023/12/20 08:28:15;;;;;;;7.40;3.57;;;6.10;99.90;;;;;;5059364;28;20479;-73
2023/12/20 08:30:41;;;;;;;3.83;2.67;;;6.10;99.90;;;;;;5057698;28;20570;-73
2023/12/20 08:33:11;;;;;;;34.23;4.00;;;6.10;99.90;;;;;;5058946;28;21040;-72
2023/12/20 08:35:38;;;;;;;8.53;2.80;;;6.00;99.90;;;;;;5058670;28;20479;-73
2023/12/20 08:38:05;;;;;;;4.60;3.30;;;6.00;99.90;;;;;;5059649;28;20542;-74
2023/12/20 08:40:33;;;;;;;6.47;2.97;;;6.10;99.90;;;;;;5059118;28;20558;-74
2023/12/20 08:43:00;;;;;;;5.90;3.67;;;6.10;99.90;;;;;;5059555;28;20557;-75
2023/12/20 08:45:26;;;;;;;12.03;3.63;;;6.10;99.90;;;;;;5058040;28;20662;-75
2023/12/20 08:47:53;;;;;;;10.53;4.40;;;6.10;99.90;;;;;;5060205;28;20506;-73
2023/12/20 08:50:20;;;;;;;5.60;3.17;;;6.20;99.90;;;;;;5047713;28;20479;-75
2023/12/20 08:52:47;;;;;;;5.97;3.30;;;6.20;99.90;;;;;;5057973;28;20891;-74
2023/12/20 08:55:14;;;;;;;37.73;3.93;;;6.20;99.90;;;;;;5058562;28;21024;-75
2023/12/20 08:57:43;;;;;;;7.67;2.97;;;6.20;99.90;;;;;;5054964;28;20985;-74
2023/12/20 09:00:11;;;;;;;2.83;2.27;;;6.20;99.90;;;;;;5059445;28;20557;-76
2023/12/20 09:02:38;;;;;;;6.97;2.30;;;6.20;99.90;;;;;;5059414;28;21186;-74
2023/12/20 09:05:05;;;;;;;5.80;4.00;;;6.20;99.90;;;;;;5058104;28;20479;-75
2023/12/20 09:07:32;;;;;;;15.53;3.60;;;6.20;99.90;;;;;;5059746;28;20478;-74
2023/12/20 09:09:59;;;;;;;5.50;2.40;;;6.20;99.90;;;;;;5058363;28;20509;-70
2023/12/20 09:12:27;;;;;;;28.23;4.13;;;6.20;99.90;;;;;;5059107;28;20529;-72
2023/12/20 09:14:55;;;;;;;15.00;4.00;;;6.30;99.90;;;;;;5057715;28;20467;-74
2023/12/20 09:17:22;;;;;;;3.20;2.10;;;6.30;99.90;;;;;;5059556;28;20870;-74
2023/12/20 09:19:50;;;;;;;2.43;2.23;;;6.30;99.90;;;;;;5061330;28;20570;-71
2023/12/20 09:22:17;;;;;;;8.10;3.33;;;6.40;99.90;;;;;;5059534;28;20470;-72
2023/12/20 09:24:44;;;;;;;6.20;2.70;;;6.40;99.90;;;;;;5058109;28;20493;-74
2023/12/20 09:27:11;;;;;;;10.87;2.30;;;6.30;99.90;;;;;;5058086;28;20490;-74
2023/12/20 09:29:38;;;;;;;12.00;2.50;;;6.30;99.90;;;;;;5050795;28;20645;-70
2023/12/20 09:32:06;;;;;;;6.40;2.93;;;6.40;99.90;;;;;;5069863;28;20572;-72
2023/12/20 09:34:33;;;;;;;8.17;2.57;;;6.40;99.90;;;;;;5058551;28;20550;-72
2023/12/20 09:36:59;;;;;;;10.87;3.53;;;6.30;99.90;;;;;;5059117;28;20502;-72
2023/12/20 09:39:26;;;;;;;4.70;2.13;;;6.30;99.90;;;;;;5058035;28;20620;-69
2023/12/20 09:42:01;;;;;;;36.63;4.60;;;6.40;99.90;;;;;;5058239;28;20666;-73
2023/12/20 09:44:27;;;;;;;7.47;2.80;;;6.40;99.90;;;;;;5057501;28;20585;-73
2023/12/20 09:46:56;;;;;;;5.27;3.23;;;6.40;99.90;;;;;;5058786;28;20571;-71
2023/12/20 09:49:26;;;;;;;13.73;4.10;;;6.40;99.90;;;;;;5057396;28;20912;-73
2023/12/20 09:51:56;;;;;;;5.23;2.50;;;6.50;99.90;;;;;;5046322;28;20498;-73
2023/12/20 09:54:24;;;;;;;5.70;2.70;;;6.50;99.90;;;;;;5057413;28;20550;-74
2023/12/20 09:56:51;;;;;;;4.53;2.07;;;6.50;99.90;;;;;;5057491;28;20670;-69
2023/12/20 09:59:17;;;;;;;8.63;2.70;;;6.60;99.90;;;;;;5059481;28;20582;-69
2023/12/20 10:01:44;;;;;;;4.37;3.00;;;6.50;99.90;;;;;;5057812;28;20878;-71
2023/12/20 10:04:14;;;;;;;4.60;1.47;;;6.60;99.90;;;;;;5058557;28;20467;-71
2023/12/20 10:06:43;;;;;;;5.83;3.10;;;6.60;99.90;;;;;;5060590;28;20486;-73
2023/12/20 10:09:10;;;;;;;3.10;1.83;;;6.50;99.90;;;;;;5063384;28;20499;-73
2023/12/20 10:11:38;;;;;;;10.73;2.53;;;6.50;99.90;;;;;;5064784;28;20657;-72
2023/12/20 10:14:05;;;;;;;5.10;2.63;;;6.60;99.90;;;;;;5062299;28;20549;-71
2023/12/20 10:16:33;;;;;;;8.97;1.87;;;6.50;99.90;;;;;;5059547;28;20892;-69
2023/12/20 10:19:00;;;;;;;9.63;2.57;;;6.50;99.90;;;;;;5069376;28;20907;-73
2023/12/20 10:21:28;;;;;;;10.73;3.20;;;6.50;99.90;;;;;;5062376;28;20829;-72
2023/12/20 10:23:56;;;;;;;11.70;3.97;;;6.50;99.90;;;;;;5060734;28;20551;-73
2023/12/20 10:26:25;;;;;;;28.50;3.83;;;6.60;99.90;;;;;;5060600;28;21016;-74
2023/12/20 10:28:52;;;;;;;5.53;2.97;;;6.60;99.90;;;;;;5061731;28;20479;-70
2023/12/20 10:31:30;;;;;;;8.60;3.90;;;6.50;99.90;;;;;;5062142;28;20498;-69
2023/12/20 10:33:58;;;;;;;3.60;2.60;;;6.50;99.90;;;;;;5049773;28;20544;-71
2023/12/20 10:36:27;;;;;;;2.77;2.20;;;6.60;99.90;;;;;;5050251;28;20566;-69
2023/12/20 10:38:58;;;;;;;8.20;2.23;;;6.60;99.90;;;;;;5060662;28;20478;-73
2023/12/20 10:41:27;;;;;;;19.83;2.93;;;6.60;99.90;;;;;;5060137;28;20533;-69
2023/12/20 10:43:59;;;;;;;20.13;4.70;;;6.70;99.90;;;;;;5050499;28;21009;-73
2023/12/20 10:46:28;;;;;;;20.63;3.47;;;6.70;99.90;;;;;;5059513;28;20949;-73
2023/12/20 10:48:55;;;;;;;10.10;3.53;;;6.70;99.90;;;;;;5061156;28;21054;-71
2023/12/20 10:51:24;;;;;;;24.43;4.60;;;6.70;99.90;;;;;;5060373;28;20475;-72
2023/12/20 10:53:51;;;;;;;8.50;2.40;;;6.80;99.90;;;;;;5060676;28;20551;-70
2023/12/20 10:56:20;;;;;;;2.47;2.13;;;6.80;99.90;;;;;;5060396;28;20984;-67
2023/12/20 10:58:49;;;;;;;9.53;3.77;;;6.90;99.90;;;;;;5064448;28;20614;-73
2023/12/20 11:01:17;;;;;;;9.07;2.70;;;6.90;99.90;;;;;;5061239;28;20922;-68
2023/12/20 11:03:49;;;;;;;4.13;2.67;;;6.90;99.90;;;;;;5059765;28;20482;-73
2023/12/20 11:06:31;;;;;;;5.20;2.73;;;6.90;99.90;;;;;;5060922;28;20550;-72
2023/12/20 11:09:09;;;;;;;2.83;1.67;;;6.80;99.90;;;;;;5046917;28;20524;-72
2023/12/20 11:11:46;;;;;;;10.43;2.00;;;6.80;99.90;;;;;;5059750;28;20479;-73
2023/12/20 11:14:17;;;;;;;6.40;2.47;;;6.80;99.90;;;;;;5059751;28;21154;-70
2023/12/20 11:16:44;;;;;;;8.50;4.03;;;6.80;99.90;;;;;;5059272;28;20833;-69
2023/12/20 11:19:14;;;;;;;22.37;3.03;;;6.90;99.90;;;;;;5060716;28;20514;-71
2023/12/20 11:21:41;;;;;;;5.80;2.40;;;7.00;99.90;;;;;;5060488;28;20898;-69
2023/12/20 11:24:08;;;;;;;17.47;2.30;;;7.00;99.90;;;;;;5060390;28;20537;-71
2023/12/20 11:26:34;;;;;;;13.97;3.47;;;7.10;99.90;;;;;;5059279;28;20898;-72
2023/12/20 11:29:34;;;;;;;7.03;3.37;;;7.00;99.90;;;;;;5060396;28;20498;-69
2023/12/20 11:32:02;;;;;;;32.40;4.97;;;7.10;99.90;;;;;;5048029;28;21139;-71
2023/12/20 11:34:32;;;;;;;9.73;3.13;;;7.00;99.90;;;;;;5039111;28;20504;-71
2023/12/20 11:36:59;;;;;;;9.53;2.60;;;7.10;99.90;;;;;;5044844;28;20919;-70
2023/12/20 11:39:28;;;;;;;10.30;3.17;;;7.10;99.90;;;;;;5044218;28;20846;-69
2023/12/20 11:41:57;;;;;;;7.87;2.03;;;7.00;99.90;;;;;;5040064;28;20944;-71
2023/12/20 11:44:25;;;;;;;6.03;1.80;;;7.20;99.90;;;;;;5035803;28;20596;-72
2023/12/20 11:46:54;;;;;;;13.20;3.17;;;7.20;99.90;;;;;;5046095;28;20507;-72
2023/12/20 11:49:25;;;;;;;7.60;2.53;;;7.20;99.90;;;;;;5041484;28;20565;-73
2023/12/20 11:51:52;;;;;;;2.93;2.03;;;7.10;99.90;;;;;;5040892;28;20511;-68
2023/12/20 11:54:19;;;;;;;2.40;1.40;;;7.20;99.90;;;;;;5044384;28;20613;-73
2023/12/20 11:56:46;;;;;;;7.47;2.60;;;7.20;99.90;;;;;;5051477;28;20550;-73
2023/12/20 11:59:14;;;;;;;12.20;1.90;;;7.20;99.90;;;;;;5058702;28;20507;-71
2023/12/20 12:01:40;;;;;;;12.47;2.00;;;7.10;99.90;;;;;;5059899;28;20579;-68
2023/12/20 12:04:10;;;;;;;13.97;4.00;;;7.10;99.90;;;;;;5059648;28;20751;-70
2023/12/20 12:06:36;;;;;;;20.47;3.87;;;7.10;99.90;;;;;;5054354;28;21166;-71
2023/12/20 12:09:04;;;;;;;7.23;2.37;;;7.20;99.90;;;;;;5058607;28;21245;-71
2023/12/20 12:11:31;;;;;;;3.90;1.60;;;7.10;99.90;;;;;;5034123;28;20470;-69
2023/12/20 12:13:58;;;;;;;2.43;1.13;;;7.10;99.90;;;;;;5054827;28;21070;-68
2023/12/20 12:16:25;;;;;;;3.10;1.63;;;;;;;;;;5022460;28;20511;-71
2023/12/20 12:18:58;;;;;;;10.80;2.13;;;7.30;99.90;;;;;;5065053;28;20562;-69
2023/12/20 12:21:26;;;;;;;7.07;2.37;;;7.20;99.90;;;;;;5050840;28;20486;-68
2023/12/20 12:23:54;;;;;;;11.53;3.63;;;7.30;99.90;;;;;;5040982;28;20515;-69
2023/12/20 12:26:20;;;;;;;15.47;3.70;;;7.30;99.90;;;;;;5037912;28;21454;-71
2023/12/20 12:28:47;;;;;;;6.33;2.27;;;7.40;99.90;;;;;;5045378;28;20927;-70
2023/12/20 12:31:16;;;;;;;5.53;2.40;;;7.40;99.90;;;;;;5048869;28;20503;-71
2023/12/20 12:33:43;;;;;;;10.63;3.10;;;7.40;99.90;;;;;;5046299;28;20503;-70
2023/12/20 12:36:11;;;;;;;12.87;3.50;;;7.40;99.90;;;;;;5037744;28;20486;-66
2023/12/20 12:38:39;;;;;;;4.90;2.20;;;;;;;;;;5038785;28;20483;-68
2023/12/20 12:41:07;;;;;;;25.93;3.03;;;7.50;99.90;;;;;;5045078;28;21047;-66
2023/12/20 12:43:34;;;;;;;10.73;2.00;;;7.50;99.90;;;;;;5038857;28;21021;-69
2023/12/20 12:46:01;;;;;;;3.90;1.87;;;7.50;99.90;;;;;;5039113;28;20541;-67
2023/12/20 12:48:29;;;;;;;10.77;2.73;;;7.70;99.90;;;;;;5038578;28;20484;-68
2023/12/20 12:50:58;;;;;;;2.33;1.50;;;7.50;99.90;;;;;;5039369;28;20542;-70
2023/12/20 12:53:26;;;;;;;14.00;2.53;;;7.50;99.90;;;;;;5038859;28;20535;-68
2023/12/20 12:55:55;;;;;;;8.30;2.10;;;7.60;99.90;;;;;;5039097;28;21088;-71